This is the latest recevied weather packets stored in our database for station/object KD7MPG-3. If no packets are shown the sender has not sent any weather packets the latest 10 day(s).
| Time | Temp. | Humidity | Pressure | Rain* | Wind** | Luminosity | Snow |
|---|---|---|---|---|---|---|---|
| 1787860516 | 25° C | 61% | 1025.8 hPa | 0 mm | - | - | - |
| 1787860511 | 25° C | 61% | 1025.7 hPa | 0 mm | - | - | - |
| 1787860507 | 25° C | 62% | 1025.7 hPa | 0 mm | - | - | - |
| 1787860503 | 25° C | 62% | 1025.7 hPa | 0 mm | - | - | - |
| 1787860497 | 25° C | 61% | 1025.7 hPa | 0 mm | - | - | - |
| 1787860493 | 25° C | 61% | 1025.8 hPa | 0 mm | - | - | - |
| 1787860488 | 25° C | 62% | 1025.9 hPa | 0 mm | - | - | - |
| 1787860484 | 24.44° C | 64% | 1025.9 hPa | 0 mm | - | - | - |
| 1787860479 | 24.44° C | 64% | 1026 hPa | 0 mm | - | - | - |
| 1787860475 | 24.44° C | 63% | 1025.9 hPa | 0 mm | - | - | - |
| 1787860470 | 25.56° C | 59% | 1027 hPa | 0 mm | - | - | - |
| 1787860465 | 23.89° C | 64% | 1026 hPa | 0 mm | - | - | - |
| 1787860461 | 23.33° C | 67% | 1026 hPa | 0 mm | - | - | - |
| 1787860456 | 23.33° C | 71% | 1026 hPa | 0 mm | - | - | - |
| 1787860452 | 22.78° C | 68% | 1026.1 hPa | 0 mm | - | - | - |
| 1787860446 | 22.78° C | 68% | 1026.1 hPa | 0 mm | - | - | - |
| 1787860442 | 22.22° C | 70% | 1026.1 hPa | 0 mm | - | - | - |
| 1787860438 | 22.22° C | 72% | 1026.2 hPa | 0 mm | - | - | - |
| 1787860433 | 21.67° C | 71% | 1026.3 hPa | 0 mm | - | - | - |
| 1787860429 | 21.67° C | 71% | 1026.4 hPa | 0 mm | - | - | - |
| 1787860424 | 21.67° C | 73% | 1026.4 hPa | 0 mm | - | - | - |
| 1787860420 | 21.11° C | 72% | 1026.6 hPa | 0 mm | - | - | - |
| 1787860414 | 21.11° C | 72% | 1026.6 hPa | 0 mm | - | - | - |
| 1787860410 | 21.11° C | 74% | 1026.8 hPa | 0 mm | - | - | - |
| 1787860405 | 20.56° C | 73% | 1026.9 hPa | 0 mm | - | - | - |
* Rain latest hour (hover to see other rain measurements)
** Current wind speed in m/s (hover to see current wind gust speed)